SGH Airport (Springfield-Beckley Muni) Information

FAA: SGH - ICAO: KSGH

SGH Airport Location

State Ohio
County Clark
City Springfield
SGH Airport is 5 miles south of Springfield, OH.
Latitude 39-50-25.0000N
Longitude 083-50-24.6000W
Elevation 1,051ft

KSGH Airport METARs

METAR KSGH 012356Z AUTO 00000KT 10SM CLR M06/M09 A3031 RMK AO2 SLP284 T10561094 11017 21056 58001
Altimeter 30.31"
Temperature -5.6°C (21.9°F)
Wind 0° at 0KT
Clouds Skies are clear.
Visibility 10.0mi
Time observed: 2023-02-01T23:56:00Z

SGH Airport Details

Status Operational
Activation November 1947
Ownership Public
Usage Public
Chart CINCINNATI
ATC on-site No
Beacon schedule sunset-sunrise
Beacon color clear green

SGH Airport Contacts

Owner CITY OF SPRINGFIELD
Owner address 76 E HIGH ST, SPRINGFIELD, OH 45502
Owner phone 937-325-6108
Manager DARRELL BOLING
Manager address 1111 HAYES AVE, SANDUSKY, OH 44870
Manager phone 419-626-7400

SGH Airport (Springfield-Beckley Muni) Radio Frequencies

SGH (Airport) Radio Frequencies

UNICOM 122.95
Common traffic advisory frequency (CTAF) 122.95